nws-alerts: Checking more than four warning/county codes can delay the loading of your pages. You should use a cron job to get the data.

Nearby METAR Reports

 

KFCI - Richmond/Chester, Virginia, USA
Distance from station: ESE 7mi, 12km
Updated: Sat, 04-Apr-2020 6:56pm EDT
Clear
Clear
 Wind from ENE
Wind: ENE 8 mph , 13 km/h
Temperature: 59°F , 15°C
Dew Point: 43°F , 6°C
Humidity: 55%
Barometer: 29.99 inHg , 1015.6 hPa
Clouds: Clear
Visibility: 10 miles , 16 km
2020/04/04 22:56 KFCI 042256Z AUTO 06007KT 10SM CLR 15/06 A2999 RMK AO2 SLP168 T01500056
KPTB - Petersburg, Virginia, USA
Distance from station: SSE 19mi, 31km
Updated: Sat, 04-Apr-2020 7:15pm EDT
Clear
Clear
 Wind from E
Wind: E 5 mph , 7 km/h
Temperature: 57°F , 14°C
Dew Point: 41°F , 5°C
Humidity: 55%
Barometer: 30.00 inHg , 1015.9 hPa
Clouds: Clear
Visibility: 10 miles , 16 km
2020/04/04 23:15 KPTB 042315Z AUTO 09004KT 10SM CLR 14/05 A3000 RMK AO2 T01400051
 
KRIC - Richmond, Virginia, USA
Distance from station: ENE 19mi, 31km
Updated: Sat, 04-Apr-2020 6:54pm EDT
Few Clouds
Few Clouds
 Wind from ENE
Wind: ENE 10 mph , 17 km/h
Temperature: 57°F , 14°C
Dew Point: 43°F , 6°C
Humidity: 59%
Barometer: 30.00 inHg , 1015.9 hPa
Clouds: Few Clouds
Visibility: 10 miles , 16 km
Cloud details: Few Clouds 4500 ft
2020/04/04 22:54 KRIC 042254Z 07009KT 10SM FEW045 14/06 A3000 RMK AO2 SLP162 T01440061
KOFP - Richmond/Hanover, Virginia, USA
Distance from station: NNE 22mi, 36km
Updated: Sat, 04-Apr-2020 6:54pm EDT
Clear
Clear
 Wind from ENE
Wind: ENE 6 mph , 9 km/h
Temperature: 59°F , 15°C
Dew Point: 41°F , 5°C
Humidity: 51%
Barometer: 30.01 inHg , 1016.3 hPa
Clouds: Clear
Visibility: 10 miles , 16 km
2020/04/04 22:54 KOFP 042254Z AUTO 07005KT 10SM CLR 15/05 A3001 RMK AO2 SLP163 T01500050
 
KW96 - Quinton, Virginia, USA
Distance from station: E 28mi, 46km
Updated: Sat, 04-Apr-2020 7:15pm EDT
Clear
Clear
 Wind from E
Wind: E 6 mph , 9 km/h
Temperature: 55°F , 13°C
Dew Point: 45°F , 7°C
Humidity: 67%
Barometer: 30.01 inHg , 1016.3 hPa
Clouds: Clear
Visibility: 10 miles , 16 km
2020/04/04 23:15 KW96 042315Z AUTO 09005KT 10SM CLR 13/07 A3001 RMK AO1 T01270067
KBKT - Blackstone Army, Virginia, USA
Distance from station: SW 30mi, 48km
Updated: Sat, 04-Apr-2020 7:15pm EDT
Clear
Clear
 Wind from ESE
Wind: ESE 5 mph , 7 km/h
Temperature: 59°F , 15°C
Dew Point: 41°F , 5°C
Humidity: 51%
Barometer: 29.99 inHg , 1015.6 hPa
Clouds: Clear
Visibility: 10 miles , 16 km
2020/04/04 23:15 KBKT 042315Z AUTO 12004KT 10SM CLR 15/05 A2999 RMK AO1 T01500053
 
KW81 - Crewe, Virginia, USA
Distance from station: SW 30mi, 49km
Updated: Sat, 04-Apr-2020 7:15pm EDT
Clear
Clear
 Wind from ENE
Wind: ENE 6 mph , 9 km/h
Temperature: 59°F , 15°C
Dew Point: 37°F , 3°C
Humidity: 45%
Barometer: 29.97 inHg , 1014.9 hPa
Clouds: Clear
Visibility: 10 miles , 16 km
2020/04/04 23:15 KW81 042315Z AUTO 07005KT 10SM CLR 15/03 A2997 RMK AO1 T01540025
K7W4 - Bumpass, Virginia, USA
Distance from station: N 38mi, 61km
Updated: Sat, 04-Apr-2020 7:15pm EDT
Clear
Clear
 Wind from E
Wind: E 6 mph , 9 km/h
Temperature: 57°F , 14°C
Dew Point: 39°F , 4°C
Humidity: 51%
Barometer: 30.00 inHg , 1015.9 hPa
Clouds: Clear
Visibility: 10 miles , 16 km
2020/04/04 23:15 K7W4 042315Z AUTO 08005KT 10SM CLR 14/04 A3000 RMK AO1 T01400043
 
KFVX - Farmville, Virginia, USA
Distance from station: W 43mi, 69km
Updated: Sat, 04-Apr-2020 7:15pm EDT
Clear
Clear
 Wind from E
Wind: E 8 mph , 13 km/h
Temperature: 63°F , 17°C
Dew Point: 43°F , 6°C
Humidity: 49%
Barometer: 29.96 inHg , 1014.6 hPa
Clouds: Clear
Visibility: 10 miles , 16 km
2020/04/04 23:15 KFVX 042315Z AUTO 10007KT 10SM CLR 17/06 A2996 RMK AO2 T01710055
KW31 - Kenbridge, Virginia, USA
Distance from station: SW 43mi, 70km
Updated: Sat, 04-Apr-2020 7:15pm EDT
Clear
Clear
 Wind from calm
Wind: Calm
Temperature: 61°F , 16°C
Dew Point: 43°F , 6°C
Humidity: 52%
Barometer: 29.97 inHg , 1014.9 hPa
Clouds: Clear
Visibility: 10 miles , 16 km
2020/04/04 23:15 KW31 042315Z AUTO 00000KT 10SM CLR 16/06 A2997 RMK AO1 T01570062
 
KLKU - Louisa, Virginia, USA
Distance from station: NNW 44mi, 72km
Updated: Sat, 04-Apr-2020 7:15pm EDT
Clear
Clear
 Wind from E
Wind: E 7 mph , 11 km/h
Temperature: 57°F , 14°C
Dew Point: 41°F , 5°C
Humidity: 55%
Barometer: 30.03 inHg , 1016.9 hPa
Clouds: Clear
Visibility: 10 miles , 16 km
2020/04/04 23:15 KLKU 042315Z AUTO 10006KT 10SM CLR 14/05 A3003 RMK AO2 T01440054
KLVL - Lawrenceville, Virginia, USA
Distance from station: S 46mi, 75km
Updated: Sat, 04-Apr-2020 7:15pm EDT
Clear
Clear
 Wind from ENE
Wind: ENE 5 mph , 7 km/h
Temperature: 59°F , 15°C
Dew Point: 43°F , 6°C
Humidity: 55%
Barometer: 29.99 inHg , 1015.6 hPa
Clouds: Clear
Visibility: 10 miles , 16 km
2020/04/04 23:15 KLVL 042315Z AUTO 07004KT 10SM CLR 15/06 A2999 RMK AO1 T01480055
 
KAKQ - Norfolk/Wakefld, Virginia, USA
Distance from station: SE 47mi, 75km
Updated: Sat, 04-Apr-2020 6:54pm EDT
Few Clouds
Few Clouds
 Wind from E
Wind: E 9 mph , 15 km/h
Temperature: 54°F , 12°C
Dew Point: 46°F , 8°C
Humidity: 77%
Barometer: 30.01 inHg , 1016.3 hPa
Clouds: Few Clouds
Visibility: 10 miles , 16 km
Cloud details: Few Clouds 4400 ft
2020/04/04 22:54 KAKQ 042254Z AUTO 08008KT 10SM FEW044 12/08 A3001 RMK AO2 SLP164 T01220078
KFYJ - West Point, Virginia, USA
Distance from station: E 48mi, 78km
Updated: Sat, 04-Apr-2020 7:15pm EDT
Overcast
Overcast
 Wind from E
Wind: E 6 mph , 9 km/h
Temperature: 54°F , 12°C
Dew Point: 46°F , 8°C
Humidity: 77%
Barometer: 30.04 inHg , 1017.3 hPa
Clouds: Overcast
Visibility: 10 miles , 16 km
Cloud details: Overcast 4600 ft
2020/04/04 23:15 KFYJ 042315Z AUTO 09005KT 10SM OVC046 12/08 A3004 RMK AO1 T01180080
 
KXSA - Tappahannock, Virginia, USA
Distance from station: NE 51mi, 82km
Updated: Sat, 04-Apr-2020 7:15pm EDT
Partly cloudy
Partly cloudy
 Wind from ENE
Wind: ENE 8 mph , 13 km/h
Temperature: 55°F , 13°C
Dew Point: 46°F , 8°C
Humidity: 72%
Barometer: 30.03 inHg , 1016.9 hPa
Clouds: Partly cloudy
Visibility: 10 miles , 16 km
Cloud details: Partly cloudy 4500 ft
2020/04/04 23:15 KXSA 042315Z AUTO 07007KT 10SM SCT045 13/08 A3003 RMK AO2 T01300081
KEMV - Emporia, Virginia, USA
Distance from station: S 52mi, 84km
Updated: Sat, 04-Apr-2020 7:15pm EDT
Clear
Clear
 Wind from NE
Wind: NE 7 mph , 11 km/h
Temperature: 59°F , 15°C
Dew Point: 43°F , 6°C
Humidity: 55%
Barometer: 30.01 inHg , 1016.3 hPa
Clouds: Clear
Visibility: 10 miles , 16 km
2020/04/04 23:15 KEMV 042315Z AUTO 05006KT 10SM CLR 15/06 A3001 RMK AO2 T01450060
 
KJGG - Williamsburg, Virginia, USA
Distance from station: ESE 53mi, 85km
Updated: Sat, 04-Apr-2020 7:15pm EDT
Partly cloudy
Partly cloudy
 Wind from calm
Wind: Calm
Temperature: 54°F , 12°C
Dew Point: 46°F , 8°C
Humidity: 77%
Barometer: 30.03 inHg , 1016.9 hPa
Clouds: Partly cloudy
Visibility: 10 miles , 16 km
Cloud details: Partly cloudy 4800 ft
2020/04/04 23:15 KJGG 042315Z AUTO 00000KT 10SM SCT048 12/08 A3003 RMK AO1
KAVC - South Hill/Meckl, Virginia, USA
Distance from station: SSW 56mi, 90km
Updated: Sat, 04-Apr-2020 7:15pm EDT
Clear
Clear
 Wind from ENE
Wind: ENE 3 mph , 6 km/h
Temperature: 61°F , 16°C
Dew Point: 41°F , 5°C
Humidity: 48%
Barometer: 30.03 inHg , 1016.9 hPa
Clouds: Clear
Visibility: 10 miles , 16 km
2020/04/04 23:15 KAVC 042315Z AUTO 07003KT 10SM CLR 16/05 A3003 RMK AO2 T01600045
 
KGVE - Gordonsville, Virginia, USA
Distance from station: NNW 58mi, 93km
Updated: Sat, 04-Apr-2020 7:15pm EDT
Clear
Clear
 Wind from NNE
Wind: NNE 6 mph , 9 km/h
Temperature: 59°F , 15°C
Dew Point: 43°F , 6°C
Humidity: 55%
Barometer: 29.99 inHg , 1015.6 hPa
Clouds: Clear
Visibility: 10 miles , 16 km
2020/04/04 23:15 KGVE 042315Z AUTO 03005KT 10SM CLR 15/06 A2999 RMK AO1 T01480060
KEZF - Fredericksb/Shan, Virginia, USA
Distance from station: N 59mi, 95km
Updated: Sat, 04-Apr-2020 7:15pm EDT
Clear
Clear
 Wind from E
Wind: E 6 mph , 9 km/h
Temperature: 59°F , 15°C
Dew Point: 46°F , 8°C
Humidity: 63%
Barometer: 30.00 inHg , 1015.9 hPa
Clouds: Clear
Visibility: 10 miles , 16 km
2020/04/04 23:15 KEZF 042315Z AUTO 08005KT 10SM CLR 15/08 A3000 RMK AO2 T01500075